Trenton, Alabama
Current Conditions -  °F | °C
As of 11:15 AM on Thursday 18 Dec 2014 (Local Time) from K4A6 Reporting Station
Overcast Overcast  
Wind Chill: 41°   Ceiling: 4800
Heat Index: 41°   Visibility: 10mi
Dew Point: 32°   Wind: 3mph
Humidity: 70%   Direction: 20°NNE
Pressure: 30.2"   Gusts: NA
Location:  34.74°N, 86.25°W
Report Text: K4A6 181715Z AUTO 02003KT 10SM OVC048 05/00 A3020 RMK AO2
Loading
Personal Weather Stations






























Interactive Weather Map New forecast layout! Learn more

10-Day Weather Forecast

Advertisements
Track Severe Weather on mobile